sensor_id;sensor_type;location;lat;lon;timestamp;pressure;altitude;pressure_sealevel;temperature;humidity
34034;BME280;63481;52.588;22.472;2023-08-30T20:07:09;99151.12;;;17.38;100.00
34034;BME280;63481;52.588;22.472;2023-08-30T20:12:12;99158.33;;;17.50;100.00
34034;BME280;63481;52.588;22.472;2023-08-30T20:17:14;99150.70;;;17.56;100.00
34034;BME280;63481;52.588;22.472;2023-08-30T20:22:17;99146.42;;;17.61;100.00
34034;BME280;63481;52.588;22.472;2023-08-30T20:27:19;99149.98;;;17.61;100.00
34034;BME280;63481;52.588;22.472;2023-08-30T20:32:21;99154.27;;;17.60;100.00
34034;BME280;63481;52.588;22.472;2023-08-30T20:37:24;99148.11;;;17.57;100.00
34034;BME280;63481;52.588;22.472;2023-08-30T20:42:27;99152.67;;;17.52;100.00
34034;BME280;63481;52.588;22.472;2023-08-30T20:47:29;99151.17;;;17.47;100.00
34034;BME280;63481;52.588;22.472;2023-08-30T20:52:31;99150.79;;;17.48;100.00
34034;BME280;63481;52.588;22.472;2023-08-30T20:57:34;99153.64;;;17.48;100.00
34034;BME280;63481;52.588;22.472;2023-08-30T21:02:36;99154.22;;;17.48;100.00
34034;BME280;63481;52.588;22.472;2023-08-30T21:07:39;99150.45;;;17.40;100.00
34034;BME280;63481;52.588;22.472;2023-08-30T21:12:41;99153.77;;;17.32;100.00
34034;BME280;63481;52.588;22.472;2023-08-30T21:17:44;99165.54;;;17.42;100.00
34034;BME280;63481;52.588;22.472;2023-08-30T21:22:46;99172.35;;;17.36;100.00
34034;BME280;63481;52.588;22.472;2023-08-30T21:27:53;99172.31;;;17.35;100.00
34034;BME280;63481;52.588;22.472;2023-08-30T21:32:57;99164.85;;;17.37;100.00
34034;BME280;63481;52.588;22.472;2023-08-30T21:37:59;99171.89;;;17.43;100.00
34034;BME280;63481;52.588;22.472;2023-08-30T21:43:01;99182.02;;;17.42;100.00
34034;BME280;63481;52.588;22.472;2023-08-30T21:48:04;99183.58;;;17.34;100.00
34034;BME280;63481;52.588;22.472;2023-08-30T21:53:07;99183.33;;;17.29;100.00
34034;BME280;63481;52.588;22.472;2023-08-30T21:58:09;99182.25;;;17.26;100.00
34034;BME280;63481;52.588;22.472;2023-08-30T22:03:11;99184.23;;;17.32;100.00
34034;BME280;63481;52.588;22.472;2023-08-30T22:08:13;99187.30;;;17.34;100.00
34034;BME280;63481;52.588;22.472;2023-08-30T22:13:15;99189.69;;;17.27;100.00
34034;BME280;63481;52.588;22.472;2023-08-30T22:18:17;99187.80;;;17.29;100.00
34034;BME280;63481;52.588;22.472;2023-08-30T22:23:20;99182.83;;;17.20;100.00
34034;BME280;63481;52.588;22.472;2023-08-30T22:28:22;99179.73;;;17.28;100.00
34034;BME280;63481;52.588;22.472;2023-08-30T22:33:27;99166.08;;;17.17;100.00
34034;BME280;63481;52.588;22.472;2023-08-30T22:38:33;99170.05;;;17.19;100.00
34034;BME280;63481;52.588;22.472;2023-08-30T22:43:35;99177.03;;;17.11;100.00
34034;BME280;63481;52.588;22.472;2023-08-30T22:48:37;99184.05;;;17.21;100.00
34034;BME280;63481;52.588;22.472;2023-08-30T22:53:39;99183.75;;;17.30;100.00
34034;BME280;63481;52.588;22.472;2023-08-30T22:58:42;99191.25;;;17.27;100.00
34034;BME280;63481;52.588;22.472;2023-08-30T23:03:45;99197.70;;;17.33;100.00
34034;BME280;63481;52.588;22.472;2023-08-30T23:08:47;99198.31;;;17.27;100.00
34034;BME280;63481;52.588;22.472;2023-08-30T23:13:49;99207.72;;;17.18;100.00
34034;BME280;63481;52.588;22.472;2023-08-30T23:18:51;99214.59;;;17.12;100.00
34034;BME280;63481;52.588;22.472;2023-08-30T23:23:53;99219.02;;;17.08;100.00
34034;BME280;63481;52.588;22.472;2023-08-30T23:28:55;99221.05;;;17.10;100.00
34034;BME280;63481;52.588;22.472;2023-08-30T23:33:57;99223.84;;;17.18;100.00
34034;BME280;63481;52.588;22.472;2023-08-30T23:39:00;99216.47;;;17.12;100.00
34034;BME280;63481;52.588;22.472;2023-08-30T23:44:02;99213.95;;;17.06;100.00
34034;BME280;63481;52.588;22.472;2023-08-30T23:49:05;99214.81;;;17.08;100.00
34034;BME280;63481;52.588;22.472;2023-08-30T23:54:07;99210.88;;;17.05;100.00
34034;BME280;63481;52.588;22.472;2023-08-30T23:59:09;99207.65;;;17.07;100.00
